Dades meteomassalio
Diari Summary for Febrer 20, 2018 Units:  English    Metric   Both
« Previous Day
Next Day »
Diari Semanal Mensual Anual Personalitzat
  Maxima: Minima: Mijana:
Temperatura: TemperatureC °F 7.8 °F 11.2 °F
Rosada: DewpointC °F 3.1 °F 6 °F
Humitat: Humidity % 57 % 71 %
Velocitat del vent: WindSpeedKMH mph 13.0 mph 36.6 mph
Racha vent: WindSpeedGustKMH mph - -
Vent:- - NW
Pressio: PressurehPa in 1014.8 in -
Pluja: 0.0 in    
Historical Graphs
 
 
Tabular Data for Febrer 20, 2018
Time Temperature Dew Point Pressure Wind Wind Speed Wind Gust Humidity Rainfall Rate (Hourly) solar Conditions
TemperatureC °F DewpointC °F PressurehPa in Calm     Humidity % HourlyPrecipMM in SolarRadiationWatts/m^2 W/m2 Conditions
00:00 11.1 °F 6.8 °F 1018.2 in NW 20.4 mph 20.4 mph 75 % 0.0 in 0.0 W/m2 CLR
00:05 11.1 °F 6.8 °F 1018.2 in NW 20.4 mph 20.4 mph 75 % 0.0 in 0.0 W/m2 CLR
00:06 11.1 °F 6.8 °F 1017.8 in NNW 19.3 mph 19.3 mph 75 % 0.0 in 0.0 W/m2 CLR
00:11 11.1 °F 6.8 °F 1017.8 in NNW 20.4 mph 20.4 mph 75 % 0.0 in 0.0 W/m2 CLR
00:16 11.1 °F 6.8 °F 1018.2 in NW 25.9 mph 25.9 mph 75 % 0.0 in 0.0 W/m2 CLR
00:21 11.1 °F 6.8 °F 1018.2 in NW 20.4 mph 20.4 mph 75 % 0.0 in 0.0 W/m2 CLR
00:26 11.1 °F 6.8 °F 1018.2 in NNW 20.4 mph 20.4 mph 75 % 0.0 in 0.0 W/m2 CLR
00:31 11.1 °F 6.8 °F 1017.8 in NW 24.1 mph 24.1 mph 75 % 0.0 in 0.0 W/m2 CLR
00:36 11.1 °F 6.8 °F 1017.8 in NW 16.7 mph 16.7 mph 75 % 0.0 in 0.0 W/m2 CLR
00:41 11.1 °F 6.8 °F 1017.5 in NW 22.5 mph 22.5 mph 75 % 0.0 in 0.0 W/m2 CLR
00:46 11.1 °F 6.8 °F 1017.8 in NW 18.5 mph 18.5 mph 75 % 0.0 in 0.0 W/m2 CLR
00:51 11.1 °F 6.8 °F 1017.8 in NW 18.5 mph 18.5 mph 75 % 0.0 in 0.0 W/m2 CLR
00:56 11.1 °F 6.8 °F 1017.8 in NW 24.1 mph 24.1 mph 75 % 0.0 in 0.0 W/m2 CLR
01:01 11.1 °F 7.1 °F 1017.8 in NW 16.7 mph 16.7 mph 76 % 0.0 in 0.0 W/m2 CLR
01:06 11.1 °F 6.8 °F 1017.5 in WNW 18.5 mph 18.5 mph 75 % 0.0 in 0.0 W/m2 CLR
01:11 11.1 °F 6.8 °F 1017.5 in NW 27.8 mph 27.8 mph 75 % 0.0 in 0.0 W/m2 CLR
01:16 11.1 °F 7.1 °F 1017.5 in NW 22.2 mph 22.2 mph 76 % 0.0 in 0.0 W/m2 CLR
01:17 11.1 °F 7.1 °F 1017.5 in NW 14.8 mph 14.8 mph 76 % 0.0 in 0.0 W/m2 CLR
01:22 11.1 °F 7.1 °F 1017.5 in NW 18.5 mph 18.5 mph 76 % 0.0 in 0.0 W/m2 CLR
01:27 11.1 °F 6.8 °F 1017.5 in NW 22.2 mph 22.2 mph 75 % 0.0 in 0.0 W/m2 CLR
01:32 11.1 °F 7.1 °F 1017.5 in NW 25.9 mph 25.9 mph 76 % 0.0 in 0.0 W/m2 CLR
01:37 11.1 °F 7.1 °F 1017.5 in NNW 22.5 mph 22.5 mph 76 % 0.0 in 0.0 W/m2 CLR
01:42 11.1 °F 7.1 °F 1017.5 in NW 25.9 mph 25.9 mph 76 % 0.0 in 0.0 W/m2 CLR
01:47 11.1 °F 7.1 °F 1017.5 in NNW 22.2 mph 22.2 mph 76 % 0.0 in 0.0 W/m2 CLR
01:52 11.1 °F 7.1 °F 1017.5 in NW 27.8 mph 27.8 mph 76 % 0.0 in 0.0 W/m2 CLR
01:57 10.6 °F 6.5 °F 1017.2 in NNW 25.9 mph 25.9 mph 76 % 0.0 in 0.0 W/m2 CLR
02:02 10.6 °F 6.5 °F 1017.2 in NNW 27.8 mph 27.8 mph 76 % 0.0 in 0.0 W/m2 CLR
02:07 10.6 °F 6.5 °F 1017.2 in NW 19.3 mph 19.3 mph 76 % 0.0 in 0.0 W/m2 CLR
02:12 10.6 °F 6.5 °F 1017.2 in WNW 18.5 mph 18.5 mph 76 % 0.0 in 0.0 W/m2 CLR
02:17 10.6 °F 6.5 °F 1017.2 in NNW 24.1 mph 24.1 mph 76 % 0.0 in 0.0 W/m2 CLR
02:22 11.1 °F 7.1 °F 1017.2 in NW 29.0 mph 29.0 mph 76 % 0.0 in 0.0 W/m2 CLR
02:27 10.6 °F 6.5 °F 1017.2 in NW 22.2 mph 22.2 mph 76 % 0.0 in 0.0 W/m2 CLR
02:32 10.6 °F 6.5 °F 1017.2 in NW 13.0 mph 13.0 mph 76 % 0.0 in 0.0 W/m2 CLR
02:37 11.1 °F 7.1 °F 1017.2 in NW 24.1 mph 24.1 mph 76 % 0.0 in 0.0 W/m2 CLR
02:42 11.1 °F 7.1 °F 1017.2 in NW 22.2 mph 22.2 mph 76 % 0.0 in 0.0 W/m2 CLR
02:47 11.1 °F 7.1 °F 1017.2 in NNW 24.1 mph 24.1 mph 76 % 0.0 in 0.0 W/m2 CLR
02:52 11.1 °F 7.1 °F 1017.2 in NW 22.2 mph 22.2 mph 76 % 0.0 in 0.0 W/m2 CLR
02:57 10.6 °F 6.5 °F 1017.2 in NW 16.7 mph 16.7 mph 76 % 0.0 in 0.0 W/m2 CLR
03:02 10.6 °F 6.5 °F 1017.2 in NNW 29.6 mph 29.6 mph 76 % 0.0 in 0.0 W/m2 CLR
03:07 10.6 °F 6.5 °F 1017.2 in NW 16.7 mph 16.7 mph 76 % 0.0 in 0.0 W/m2 CLR
03:12 10.6 °F 6.5 °F 1017.2 in NW 18.5 mph 18.5 mph 76 % 0.0 in 0.0 W/m2 CLR
03:17 10.6 °F 6.5 °F 1017.2 in NW 18.5 mph 18.5 mph 76 % 0.0 in 0.0 W/m2 CLR
03:22 10.6 °F 6.5 °F 1017.2 in NW 31.5 mph 31.5 mph 76 % 0.0 in 0.0 W/m2 CLR
03:27 10.6 °F 6.7 °F 1017.2 in NW 33.3 mph 33.3 mph 77 % 0.0 in 0.0 W/m2 CLR
03:32 10.6 °F 6.7 °F 1016.8 in NW 22.2 mph 22.2 mph 77 % 0.0 in 0.0 W/m2 CLR
03:37 10.6 °F 6.7 °F 1016.8 in NW 29.6 mph 29.6 mph 77 % 0.0 in 0.0 W/m2 CLR
03:42 10.6 °F 6.7 °F 1016.8 in NW 29.0 mph 29.0 mph 77 % 0.0 in 0.0 W/m2 CLR
03:47 10.6 °F 6.7 °F 1016.8 in NNW 35.2 mph 35.2 mph 77 % 0.0 in 0.0 W/m2 CLR
04:04 10.6 °F 6.9 °F 1016.5 in North 33.8 mph 33.8 mph 78 % 0.0 in 0.0 W/m2 CLR
04:09 10.6 °F 6.9 °F 1016.5 in North 42.6 mph 42.6 mph 78 % 0.0 in 0.0 W/m2 CLR
04:14 10.6 °F 6.9 °F 1016.5 in NNW 32.2 mph 32.2 mph 78 % 0.0 in 0.0 W/m2 CLR
04:19 10.6 °F 7.1 °F 1016.5 in NW 40.7 mph 40.7 mph 79 % 0.0 in 0.0 W/m2 CLR
04:24 10.6 °F 7.1 °F 1016.5 in North 35.4 mph 35.4 mph 79 % 0.0 in 0.0 W/m2 CLR
04:30 10.6 °F 7.1 °F 1016.5 in NW 31.5 mph 31.5 mph 79 % 0.0 in 0.0 W/m2 CLR
04:35 10.6 °F 7.1 °F 1016.5 in NW 29.6 mph 29.6 mph 79 % 0.0 in 0.0 W/m2 CLR
04:40 10.6 °F 7.1 °F 1016.8 in North 31.5 mph 31.5 mph 79 % 0.0 in 0.0 W/m2 CLR
04:45 10.6 °F 7.2 °F 1016.5 in NNW 29.6 mph 29.6 mph 80 % 0.0 in 0.0 W/m2 CLR
04:50 10.6 °F 7.2 °F 1016.5 in NNW 13.0 mph 13.0 mph 80 % 0.0 in 0.0 W/m2 CLR
04:55 10.6 °F 7.2 °F 1016.5 in NW 33.3 mph 33.3 mph 80 % 0.0 in 0.0 W/m2 CLR
05:00 10.6 °F 7.2 °F 1016.5 in North 25.7 mph 25.7 mph 80 % 0.0 in 0.0 W/m2 CLR
05:05 10.6 °F 7.2 °F 1016.5 in NNW 27.8 mph 27.8 mph 80 % 0.0 in 0.0 W/m2 CLR
05:10 10.6 °F 7.2 °F 1016.5 in NNW 25.9 mph 25.9 mph 80 % 0.0 in 0.0 W/m2 CLR
05:15 10.0 °F 6.7 °F 1016.5 in NW 27.8 mph 27.8 mph 80 % 0.0 in 0.0 W/m2 CLR
05:20 10.0 °F 6.7 °F 1016.5 in NNW 25.7 mph 25.7 mph 80 % 0.0 in 0.0 W/m2 CLR
05:25 10.0 °F 6.9 °F 1016.5 in NW 25.9 mph 25.9 mph 81 % 0.0 in 0.0 W/m2 CLR
05:30 10.0 °F 6.9 °F 1016.5 in NNW 27.8 mph 27.8 mph 81 % 0.0 in 0.0 W/m2 CLR
05:35 10.0 °F 6.9 °F 1016.5 in NW 29.6 mph 29.6 mph 81 % 0.0 in 0.0 W/m2 CLR
05:40 10.0 °F 6.9 °F 1016.5 in NNW 27.8 mph 27.8 mph 81 % 0.0 in 0.0 W/m2 CLR
05:45 10.0 °F 6.9 °F 1016.5 in NW 27.4 mph 27.4 mph 81 % 0.0 in 0.0 W/m2 CLR
05:50 10.0 °F 6.7 °F 1016.8 in NW 27.8 mph 27.8 mph 80 % 0.0 in 0.0 W/m2 CLR
05:55 10.0 °F 6.7 °F 1016.8 in North 25.7 mph 25.7 mph 80 % 0.0 in 0.0 W/m2 CLR
06:00 10.0 °F 6.7 °F 1016.5 in NNW 35.2 mph 35.2 mph 80 % 0.0 in 0.0 W/m2 CLR
06:05 10.6 °F 7.2 °F 1016.8 in North 31.5 mph 31.5 mph 80 % 0.0 in 0.0 W/m2 CLR
06:10 10.0 °F 6.7 °F 1016.5 in NNW 33.3 mph 33.3 mph 80 % 0.0 in 0.0 W/m2 CLR
06:15 10.0 °F 6.7 °F 1016.5 in NNW 29.6 mph 29.6 mph 80 % 0.0 in 0.0 W/m2 CLR
06:20 10.0 °F 6.7 °F 1016.5 in North 27.8 mph 27.8 mph 80 % 0.0 in 0.0 W/m2 CLR
06:25 10.0 °F 6.9 °F 1016.5 in NW 27.8 mph 27.8 mph 81 % 0.0 in 0.0 W/m2 CLR
06:30 10.0 °F 6.9 °F 1016.5 in NW 24.1 mph 24.1 mph 81 % 0.0 in 0.0 W/m2 CLR
06:35 10.0 °F 6.9 °F 1016.5 in NW 22.2 mph 22.2 mph 81 % 0.0 in 0.0 W/m2 CLR
06:40 10.0 °F 6.9 °F 1016.5 in WNW 35.2 mph 35.2 mph 81 % 0.0 in 0.0 W/m2 CLR
06:45 10.0 °F 6.7 °F 1016.5 in North 18.5 mph 18.5 mph 80 % 0.0 in 0.0 W/m2 CLR
06:50 10.0 °F 6.9 °F 1016.5 in NW 25.9 mph 25.9 mph 81 % 0.0 in 0.0 W/m2 CLR
06:55 10.0 °F 6.9 °F 1016.5 in NW 25.9 mph 25.9 mph 81 % 0.0 in 0.0 W/m2 CLR
07:00 10.0 °F 6.9 °F 1016.5 in NW 29.6 mph 29.6 mph 81 % 0.0 in 0.0 W/m2 CLR
07:05 10.0 °F 6.9 °F 1016.5 in NW 31.5 mph 31.5 mph 81 % 0.0 in 0.0 W/m2 CLR
07:10 10.0 °F 6.9 °F 1016.5 in NNW 20.4 mph 20.4 mph 81 % 0.0 in 0.0 W/m2 CLR
07:15 10.0 °F 6.9 °F 1016.5 in NW 31.5 mph 31.5 mph 81 % 0.0 in 0.0 W/m2 CLR
07:20 10.0 °F 6.9 °F 1016.5 in NW 29.6 mph 29.6 mph 81 % 0.0 in 0.0 W/m2 CLR
07:25 10.0 °F 6.9 °F 1016.5 in NNW 30.6 mph 30.6 mph 81 % 0.0 in 0.0 W/m2 CLR
07:30 10.0 °F 6.9 °F 1016.5 in NNW 29.0 mph 29.0 mph 81 % 0.0 in 0.0 W/m2 CLR
07:35 10.0 °F 6.9 °F 1016.5 in NNW 33.3 mph 33.3 mph 81 % 0.0 in 0.0 W/m2 CLR
07:40 10.0 °F 6.9 °F 1016.5 in NW 33.3 mph 33.3 mph 81 % 0.0 in 0.0 W/m2 OVC
07:45 10.0 °F 6.9 °F 1016.5 in NNW 33.3 mph 33.3 mph 81 % 0.0 in 5.0 W/m2 OVC
07:50 10.0 °F 6.9 °F 1016.5 in NW 33.3 mph 33.3 mph 81 % 0.0 in 9.0 W/m2 OVC
07:55 10.0 °F 6.9 °F 1016.8 in NW 25.9 mph 25.9 mph 81 % 0.0 in 16.0 W/m2 BKN
08:00 10.0 °F 6.9 °F 1016.8 in NNW 24.1 mph 24.1 mph 81 % 0.0 in 23.0 W/m2 BKN
08:05 10.6 °F 7.2 °F 1016.8 in NNW 25.9 mph 25.9 mph 80 % 0.0 in 28.0 W/m2 BKN
08:10 10.6 °F 7.2 °F 1016.8 in NW 29.6 mph 29.6 mph 80 % 0.0 in 33.0 W/m2 BKN
08:15 10.6 °F 7.1 °F 1016.8 in NW 25.9 mph 25.9 mph 79 % 0.0 in 37.0 W/m2 BKN
08:20 10.6 °F 7.1 °F 1016.8 in NW 27.4 mph 27.4 mph 79 % 0.0 in 37.0 W/m2 BKN
08:25 10.6 °F 7.1 °F 1016.8 in NW 31.5 mph 31.5 mph 79 % 0.0 in 35.0 W/m2 BKN
08:30 10.6 °F 7.1 °F 1016.8 in NW 33.3 mph 33.3 mph 79 % 0.0 in 44.0 W/m2 BKN
08:35 10.6 °F 7.1 °F 1016.8 in WNW 27.8 mph 27.8 mph 79 % 0.0 in 42.0 W/m2 BKN
08:40 10.6 °F 6.9 °F 1016.8 in NNW 24.1 mph 24.1 mph 78 % 0.0 in 46.0 W/m2 SCT
08:45 10.6 °F 6.9 °F 1016.8 in WNW 31.5 mph 31.5 mph 78 % 0.0 in 62.0 W/m2 SCT
08:50 10.6 °F 6.9 °F 1016.8 in NW 30.6 mph 30.6 mph 78 % 0.0 in 70.0 W/m2 SCT
08:55 10.6 °F 6.9 °F 1016.8 in NW 37.0 mph 37.0 mph 78 % 0.0 in 84.0 W/m2 FEW
09:00 11.1 °F 7.2 °F 1017.2 in NNW 27.8 mph 27.8 mph 77 % 0.0 in 109.0 W/m2 FEW
09:05 11.1 °F 7.2 °F 1017.2 in NNW 27.8 mph 27.8 mph 77 % 0.0 in 148.0 W/m2 CLR
09:10 11.1 °F 7.2 °F 1017.2 in NW 29.6 mph 29.6 mph 77 % 0.0 in 142.0 W/m2 CLR
09:15 11.1 °F 7.1 °F 1017.2 in NNW 27.8 mph 27.8 mph 76 % 0.0 in 169.0 W/m2 CLR
09:20 11.7 °F 7.4 °F 1017.2 in NW 33.8 mph 33.8 mph 75 % 0.0 in 272.0 W/m2 CLR
09:25 11.7 °F 7.4 °F 1017.2 in NW 40.7 mph 40.7 mph 75 % 0.0 in 141.0 W/m2 CLR
09:30 11.7 °F 7.4 °F 1017.5 in NNW 38.9 mph 38.9 mph 75 % 0.0 in 111.0 W/m2 CLR
09:35 11.1 °F 6.7 °F 1017.5 in NW 24.1 mph 24.1 mph 74 % 0.0 in 127.0 W/m2 CLR
09:41 11.7 °F 7.2 °F 1017.5 in NW 31.5 mph 31.5 mph 74 % 0.0 in 153.0 W/m2 CLR
09:45 11.7 °F 7.2 °F 1017.5 in WNW 24.1 mph 24.1 mph 74 % 0.0 in 158.0 W/m2 CLR
09:50 11.7 °F 7.2 °F 1017.5 in NNW 27.8 mph 27.8 mph 74 % 0.0 in 185.0 W/m2 CLR
09:56 11.7 °F 7.0 °F 1017.5 in NNW 25.9 mph 25.9 mph 73 % 0.0 in 246.0 W/m2 CLR
10:01 12.2 °F 7.5 °F 1017.5 in NW 24.1 mph 24.1 mph 73 % 0.0 in 209.0 W/m2 CLR
10:06 12.2 °F 7.5 °F 1017.5 in NW 25.9 mph 25.9 mph 73 % 0.0 in 204.0 W/m2 CLR
10:11 12.2 °F 7.3 °F 1017.5 in NNW 51.8 mph 51.8 mph 72 % 0.0 in 211.0 W/m2 CLR
10:16 12.2 °F 7.5 °F 1017.5 in NNW 32.2 mph 32.2 mph 73 % 0.0 in 346.0 W/m2 CLR
10:21 12.8 °F 7.8 °F 1017.5 in North 35.4 mph 35.4 mph 72 % 0.0 in 192.0 W/m2 CLR
10:26 12.2 °F 7.3 °F 1017.5 in NNW 35.2 mph 35.2 mph 72 % 0.0 in 195.0 W/m2 CLR
10:31 12.2 °F 7.3 °F 1017.5 in North 42.6 mph 42.6 mph 72 % 0.0 in 169.0 W/m2 CLR
10:36 12.2 °F 7.3 °F 1017.5 in NNW 43.4 mph 43.4 mph 72 % 0.0 in 135.0 W/m2 CLR
10:41 12.2 °F 7.3 °F 1017.5 in NNW 35.4 mph 35.4 mph 72 % 0.0 in 185.0 W/m2 CLR
10:46 12.2 °F 7.3 °F 1017.5 in North 37.0 mph 37.0 mph 72 % 0.0 in 172.0 W/m2 CLR
10:51 12.2 °F 7.1 °F 1017.5 in NNW 42.6 mph 42.6 mph 71 % 0.0 in 221.0 W/m2 CLR
10:56 12.2 °F 7.1 °F 1017.5 in NW 31.5 mph 31.5 mph 71 % 0.0 in 179.0 W/m2 CLR
11:01 12.8 °F 7.4 °F 1017.5 in NNW 24.1 mph 24.1 mph 70 % 0.0 in 190.0 W/m2 CLR
11:06 12.8 °F 7.4 °F 1017.5 in NNW 27.8 mph 27.8 mph 70 % 0.0 in 190.0 W/m2 CLR
11:11 12.8 °F 7.2 °F 1017.8 in North 48.1 mph 48.1 mph 69 % 0.0 in 206.0 W/m2 CLR
11:16 12.8 °F 7.4 °F 1017.8 in NNE 42.6 mph 42.6 mph 70 % 0.0 in 178.0 W/m2 CLR
11:21 12.8 °F 7.2 °F 1017.5 in North 42.6 mph 42.6 mph 69 % 0.0 in 255.0 W/m2 CLR
11:26 12.8 °F 7.2 °F 1017.5 in NNW 42.6 mph 42.6 mph 69 % 0.0 in 211.0 W/m2 CLR
11:31 12.8 °F 7.0 °F 1017.8 in North 40.7 mph 40.7 mph 68 % 0.0 in 272.0 W/m2 CLR
11:36 12.8 °F 7.0 °F 1017.5 in NNW 42.6 mph 42.6 mph 68 % 0.0 in 241.0 W/m2 CLR
11:41 12.8 °F 7.0 °F 1017.5 in NNW 48.1 mph 48.1 mph 68 % 0.0 in 227.0 W/m2 CLR
11:46 12.8 °F 7.0 °F 1017.5 in North 46.3 mph 46.3 mph 68 % 0.0 in 264.0 W/m2 CLR
11:51 12.8 °F 7.0 °F 1017.5 in NNW 25.9 mph 25.9 mph 68 % 0.0 in 272.0 W/m2 CLR
11:56 12.8 °F 6.8 °F 1017.5 in NNW 42.6 mph 42.6 mph 67 % 0.0 in 243.0 W/m2 CLR
12:01 12.8 °F 6.8 °F 1017.2 in North 40.7 mph 40.7 mph 67 % 0.0 in 258.0 W/m2 CLR
12:06 12.8 °F 6.8 °F 1017.2 in NNW 53.7 mph 53.7 mph 67 % 0.0 in 229.0 W/m2 CLR
12:11 12.8 °F 7.0 °F 1017.2 in North 24.1 mph 24.1 mph 68 % 0.0 in 253.0 W/m2 CLR
12:16 12.8 °F 7.0 °F 1017.5 in NNW 31.5 mph 31.5 mph 68 % 0.0 in 308.0 W/m2 CLR
12:21 12.8 °F 6.8 °F 1017.5 in North 55.5 mph 55.5 mph 67 % 0.0 in 262.0 W/m2 CLR
12:26 12.8 °F 6.8 °F 1017.2 in North 50.0 mph 50.0 mph 67 % 0.0 in 274.0 W/m2 CLR
12:31 13.3 °F 7.3 °F 1017.2 in North 40.7 mph 40.7 mph 67 % 0.0 in 320.0 W/m2 CLR
12:36 13.3 °F 7.1 °F 1017.2 in NNW 55.5 mph 55.5 mph 66 % 0.0 in 392.0 W/m2 CLR
12:41 13.3 °F 7.1 °F 1017.2 in NNW 44.4 mph 44.4 mph 66 % 0.0 in 290.0 W/m2 CLR
12:46 12.8 °F 6.6 °F 1017.2 in NNW 50.0 mph 50.0 mph 66 % 0.0 in 283.0 W/m2 CLR
12:51 12.8 °F 6.8 °F 1016.8 in North 31.5 mph 31.5 mph 67 % 0.0 in 320.0 W/m2 CLR
12:56 13.3 °F 7.1 °F 1016.8 in NNW 40.7 mph 40.7 mph 66 % 0.0 in 336.0 W/m2 CLR
13:01 13.3 °F 6.9 °F 1016.8 in North 51.5 mph 51.5 mph 65 % 0.0 in 301.0 W/m2 CLR
13:06 13.3 °F 6.9 °F 1016.8 in North 51.8 mph 51.8 mph 65 % 0.0 in 330.0 W/m2 CLR
13:11 13.3 °F 6.9 °F 1016.8 in North 42.6 mph 42.6 mph 65 % 0.0 in 287.0 W/m2 CLR
13:16 13.3 °F 6.9 °F 1016.8 in NNW 48.1 mph 48.1 mph 65 % 0.0 in 339.0 W/m2 CLR
13:21 13.3 °F 6.9 °F 1016.5 in NNW 33.8 mph 33.8 mph 65 % 0.0 in 345.0 W/m2 CLR
13:26 13.3 °F 6.9 °F 1016.8 in North 44.4 mph 44.4 mph 65 % 0.0 in 299.0 W/m2 CLR
13:31 13.3 °F 6.7 °F 1016.5 in NNW 33.3 mph 33.3 mph 64 % 0.0 in 287.0 W/m2 CLR
13:36 13.3 °F 6.4 °F 1016.5 in WNW 42.6 mph 42.6 mph 63 % 0.0 in 373.0 W/m2 CLR
13:41 13.9 °F 7.2 °F 1016.5 in NNW 30.6 mph 30.6 mph 64 % 0.0 in 367.0 W/m2 CLR
13:46 13.9 °F 6.5 °F 1016.5 in NNW 55.5 mph 55.5 mph 61 % 0.0 in 297.0 W/m2 CLR
13:51 13.9 °F 6.5 °F 1016.5 in North 53.7 mph 53.7 mph 61 % 0.0 in 316.0 W/m2 CLR
13:56 13.9 °F 6.5 °F 1016.5 in North 51.8 mph 51.8 mph 61 % 0.0 in 311.0 W/m2 CLR
14:01 13.9 °F 6.7 °F 1016.5 in North 48.1 mph 48.1 mph 62 % 0.0 in 295.0 W/m2 CLR
14:06 13.9 °F 6.5 °F 1016.1 in NNW 51.8 mph 51.8 mph 61 % 0.0 in 309.0 W/m2 CLR
14:11 13.9 °F 6.5 °F 1016.1 in NNW 50.0 mph 50.0 mph 61 % 0.0 in 345.0 W/m2 CLR
14:16 13.9 °F 6.7 °F 1016.1 in NNW 48.1 mph 48.1 mph 62 % 0.0 in 385.0 W/m2 CLR
14:21 13.9 °F 6.7 °F 1015.8 in NW 31.5 mph 31.5 mph 62 % 0.0 in 452.0 W/m2 CLR
14:26 13.9 °F 6.7 °F 1015.8 in NNW 48.1 mph 48.1 mph 62 % 0.0 in 343.0 W/m2 CLR
14:31 13.9 °F 6.9 °F 1016.1 in NNW 40.7 mph 40.7 mph 63 % 0.0 in 327.0 W/m2 CLR
14:36 13.9 °F 6.7 °F 1016.1 in North 51.8 mph 51.8 mph 62 % 0.0 in 304.0 W/m2 CLR
14:41 13.9 °F 6.7 °F 1015.8 in NNW 50.0 mph 50.0 mph 62 % 0.0 in 294.0 W/m2 CLR
14:46 13.9 °F 6.7 °F 1015.8 in North 42.6 mph 42.6 mph 62 % 0.0 in 306.0 W/m2 CLR
14:51 13.9 °F 6.5 °F 1015.8 in North 55.5 mph 55.5 mph 61 % 0.0 in 297.0 W/m2 CLR
14:56 13.9 °F 6.5 °F 1015.8 in North 53.7 mph 53.7 mph 61 % 0.0 in 302.0 W/m2 CLR
15:01 13.9 °F 6.7 °F 1015.8 in North 38.9 mph 38.9 mph 62 % 0.0 in 352.0 W/m2 CLR
15:06 13.9 °F 6.5 °F 1015.8 in North 62.9 mph 62.9 mph 61 % 0.0 in 336.0 W/m2 CLR
15:11 13.9 °F 6.5 °F 1015.5 in North 50.0 mph 50.0 mph 61 % 0.0 in 323.0 W/m2 CLR
15:16 13.9 °F 6.5 °F 1015.5 in NNW 48.1 mph 48.1 mph 61 % 0.0 in 267.0 W/m2 CLR
15:21 13.9 °F 6.5 °F 1015.5 in North 42.6 mph 42.6 mph 61 % 0.0 in 325.0 W/m2 CLR
15:27 13.9 °F 6.5 °F 1015.5 in NW 42.6 mph 42.6 mph 61 % 0.0 in 316.0 W/m2 CLR
15:32 13.9 °F 6.2 °F 1015.5 in North 46.7 mph 46.7 mph 60 % 0.0 in 497.0 W/m2 CLR
15:37 14.4 °F 6.5 °F 1015.5 in NNW 64.8 mph 64.8 mph 59 % 0.0 in 209.0 W/m2 CLR
15:42 13.9 °F 6.2 °F 1015.1 in NNW 46.3 mph 46.3 mph 60 % 0.0 in 218.0 W/m2 CLR
15:47 14.4 °F 6.5 °F 1015.5 in North 62.9 mph 62.9 mph 59 % 0.0 in 557.0 W/m2 CLR
15:52 15.0 °F 7.1 °F 1015.1 in NNW 44.4 mph 44.4 mph 59 % 0.0 in 577.0 W/m2 CLR
15:57 14.4 °F 6.3 °F 1015.1 in NNW 50.0 mph 50.0 mph 58 % 0.0 in 188.0 W/m2 CLR
16:02 13.9 °F 5.8 °F 1015.1 in North 50.0 mph 50.0 mph 58 % 0.0 in 239.0 W/m2 CLR
16:07 13.9 °F 6.0 °F 1015.1 in NW 35.4 mph 35.4 mph 59 % 0.0 in 471.0 W/m2 CLR
16:12 14.4 °F 6.5 °F 1015.1 in NNW 46.3 mph 46.3 mph 59 % 0.0 in 142.0 W/m2 CLR
16:17 13.9 °F 6.0 °F 1015.5 in NNW 53.7 mph 53.7 mph 59 % 0.0 in 171.0 W/m2 CLR
16:22 13.3 °F 5.5 °F 1015.1 in North 55.5 mph 55.5 mph 59 % 0.0 in 74.0 W/m2 CLR
16:27 13.9 °F 6.2 °F 1015.5 in NW 37.0 mph 37.0 mph 60 % 0.0 in 357.0 W/m2 CLR
16:32 13.9 °F 5.8 °F 1015.5 in NW 42.6 mph 42.6 mph 58 % 0.0 in 376.0 W/m2 CLR
16:37 13.9 °F 5.5 °F 1015.5 in North 51.5 mph 51.5 mph 57 % 0.0 in 120.0 W/m2 CLR
16:42 13.9 °F 5.8 °F 1015.1 in North 51.5 mph 51.5 mph 58 % 0.0 in 79.0 W/m2 CLR
16:47 13.9 °F 5.8 °F 1015.1 in NNW 42.6 mph 42.6 mph 58 % 0.0 in 315.0 W/m2 CLR
16:52 13.9 °F 5.8 °F 1015.1 in NW 61.1 mph 61.1 mph 58 % 0.0 in 113.0 W/m2 CLR
16:57 13.3 °F 5.7 °F 1015.5 in North 49.9 mph 49.9 mph 60 % 0.0 in 63.0 W/m2 FEW
17:02 12.8 °F 5.2 °F 1015.5 in NNW 27.8 mph 27.8 mph 60 % 0.0 in 84.0 W/m2 FEW
17:07 13.3 °F 5.7 °F 1015.5 in North 67.6 mph 67.6 mph 60 % 0.0 in 241.0 W/m2 CLR
17:12 12.8 °F 5.2 °F 1015.5 in North 46.3 mph 46.3 mph 60 % 0.0 in 142.0 W/m2 CLR
17:17 12.8 °F 5.2 °F 1015.5 in NNW 40.7 mph 40.7 mph 60 % 0.0 in 47.0 W/m2 FEW
17:22 12.8 °F 5.4 °F 1015.1 in North 38.9 mph 38.9 mph 61 % 0.0 in 44.0 W/m2 SCT
17:27 12.2 °F 4.9 °F 1015.5 in North 42.6 mph 42.6 mph 61 % 0.0 in 47.0 W/m2 SCT
17:32 12.2 °F 4.9 °F 1015.5 in North 37.0 mph 37.0 mph 61 % 0.0 in 151.0 W/m2 FEW
17:37 12.2 °F 4.9 °F 1015.5 in NW 31.5 mph 31.5 mph 61 % 0.0 in 111.0 W/m2 FEW
17:42 12.2 °F 5.2 °F 1015.1 in NNW 42.6 mph 42.6 mph 62 % 0.0 in 69.0 W/m2 FEW
17:47 12.2 °F 5.2 °F 1015.5 in North 41.8 mph 41.8 mph 62 % 0.0 in 26.0 W/m2 BKN
17:52 12.2 °F 5.2 °F 1015.5 in NNW 42.6 mph 42.6 mph 62 % 0.0 in 23.0 W/m2 BKN
17:57 12.2 °F 4.9 °F 1015.5 in NNW 42.6 mph 42.6 mph 61 % 0.0 in 28.0 W/m2 BKN
18:02 11.7 °F 4.6 °F 1015.5 in North 55.5 mph 55.5 mph 62 % 0.0 in 42.0 W/m2 BKN
18:07 11.7 °F 4.6 °F 1015.5 in NNW 46.3 mph 46.3 mph 62 % 0.0 in 26.0 W/m2 BKN
18:12 11.7 °F 4.6 °F 1015.5 in North 53.7 mph 53.7 mph 62 % 0.0 in 18.0 W/m2 BKN
18:17 11.7 °F 4.6 °F 1015.5 in North 41.8 mph 41.8 mph 62 % 0.0 in 14.0 W/m2 BKN
18:22 11.1 °F 4.1 °F 1015.1 in North 50.0 mph 50.0 mph 62 % 0.0 in 12.0 W/m2 BKN
18:27 11.1 °F 4.1 °F 1015.1 in NNW 55.5 mph 55.5 mph 62 % 0.0 in 11.0 W/m2 BKN
18:32 11.1 °F 4.3 °F 1015.1 in North 62.9 mph 62.9 mph 63 % 0.0 in 9.0 W/m2 BKN
18:37 11.1 °F 4.3 °F 1015.5 in North 61.1 mph 61.1 mph 63 % 0.0 in 7.0 W/m2 BKN
18:42 11.1 °F 4.3 °F 1015.5 in NNW 59.2 mph 59.2 mph 63 % 0.0 in 0.0 W/m2
18:47 11.1 °F 4.3 °F 1015.5 in North 48.1 mph 48.1 mph 63 % 0.0 in 0.0 W/m2 OVC
18:52 11.1 °F 4.3 °F 1015.8 in North 42.6 mph 42.6 mph 63 % 0.0 in 0.0 W/m2 CLR
18:57 10.6 °F 3.8 °F 1015.8 in NNW 38.9 mph 38.9 mph 63 % 0.0 in 0.0 W/m2 CLR
19:02 10.6 °F 3.8 °F 1015.8 in NNW 45.1 mph 45.1 mph 63 % 0.0 in 0.0 W/m2 CLR
19:07 10.6 °F 4.0 °F 1015.8 in NNW 42.6 mph 42.6 mph 64 % 0.0 in 0.0 W/m2 CLR
19:12 10.6 °F 4.2 °F 1015.8 in NW 46.3 mph 46.3 mph 65 % 0.0 in 0.0 W/m2 CLR
19:17 10.6 °F 4.2 °F 1015.8 in NNW 42.6 mph 42.6 mph 65 % 0.0 in 0.0 W/m2 CLR
19:22 10.6 °F 4.2 °F 1016.1 in NNW 44.4 mph 44.4 mph 65 % 0.0 in 0.0 W/m2 CLR
19:27 10.0 °F 3.9 °F 1015.8 in NNW 45.1 mph 45.1 mph 66 % 0.0 in 0.0 W/m2 CLR
19:32 10.0 °F 3.9 °F 1015.8 in NNW 37.0 mph 37.0 mph 66 % 0.0 in 0.0 W/m2 CLR
19:38 10.0 °F 3.9 °F 1016.1 in NW 42.6 mph 42.6 mph 66 % 0.0 in 0.0 W/m2 CLR
19:43 10.0 °F 3.9 °F 1016.1 in North 42.6 mph 42.6 mph 66 % 0.0 in 0.0 W/m2 CLR
19:48 10.0 °F 3.9 °F 1016.1 in NW 46.3 mph 46.3 mph 66 % 0.0 in 0.0 W/m2 CLR
19:53 10.0 °F 3.9 °F 1016.1 in North 45.1 mph 45.1 mph 66 % 0.0 in 0.0 W/m2 CLR
19:58 10.0 °F 3.9 °F 1016.1 in NNW 42.6 mph 42.6 mph 66 % 0.0 in 0.0 W/m2 CLR
20:03 9.4 °F 3.4 °F 1016.1 in NW 37.0 mph 37.0 mph 66 % 0.0 in 0.0 W/m2 CLR
20:08 9.4 °F 3.6 °F 1016.1 in North 50.0 mph 50.0 mph 67 % 0.0 in 0.0 W/m2 CLR
20:13 9.4 °F 3.6 °F 1015.8 in NNW 43.4 mph 43.4 mph 67 % 0.0 in 0.0 W/m2 CLR
20:18 9.4 °F 3.6 °F 1016.1 in NNW 29.6 mph 29.6 mph 67 % 0.0 in 0.0 W/m2 CLR
20:23 9.4 °F 3.8 °F 1016.1 in NNW 55.5 mph 55.5 mph 68 % 0.0 in 0.0 W/m2 CLR
20:28 9.4 °F 3.8 °F 1016.1 in NW 37.0 mph 37.0 mph 68 % 0.0 in 0.0 W/m2 CLR
20:33 9.4 °F 3.8 °F 1016.1 in NNW 37.0 mph 37.0 mph 68 % 0.0 in 0.0 W/m2 CLR
20:38 9.4 °F 3.8 °F 1016.5 in NNW 48.1 mph 48.1 mph 68 % 0.0 in 0.0 W/m2 CLR
20:43 9.4 °F 4.1 °F 1016.5 in NNW 40.7 mph 40.7 mph 69 % 0.0 in 0.0 W/m2 CLR
20:48 9.4 °F 4.2 °F 1016.5 in NW 46.3 mph 46.3 mph 70 % 0.0 in 0.0 W/m2 CLR
20:53 9.4 °F 4.2 °F 1016.5 in NW 38.9 mph 38.9 mph 70 % 0.0 in 0.0 W/m2 CLR
20:58 9.4 °F 4.2 °F 1016.5 in NW 37.0 mph 37.0 mph 70 % 0.0 in 0.0 W/m2 CLR
21:03 9.4 °F 4.4 °F 1016.5 in NW 42.6 mph 42.6 mph 71 % 0.0 in 0.0 W/m2 CLR
21:08 8.9 °F 3.9 °F 1016.5 in NNW 50.0 mph 50.0 mph 71 % 0.0 in 0.0 W/m2 CLR
21:13 8.9 °F 3.9 °F 1016.5 in NW 40.7 mph 40.7 mph 71 % 0.0 in 0.0 W/m2 CLR
21:18 8.9 °F 3.9 °F 1016.5 in NW 29.6 mph 29.6 mph 71 % 0.0 in 0.0 W/m2 CLR
21:23 8.9 °F 3.9 °F 1016.5 in NW 42.6 mph 42.6 mph 71 % 0.0 in 0.0 W/m2 CLR
21:28 8.9 °F 3.9 °F 1016.5 in NNW 40.7 mph 40.7 mph 71 % 0.0 in 0.0 W/m2 CLR
21:33 8.9 °F 4.1 °F 1016.5 in WNW 46.3 mph 46.3 mph 72 % 0.0 in 0.0 W/m2 CLR
21:38 8.9 °F 4.1 °F 1016.5 in NW 46.7 mph 46.7 mph 72 % 0.0 in 0.0 W/m2 CLR
21:43 8.9 °F 4.1 °F 1016.1 in NW 37.0 mph 37.0 mph 72 % 0.0 in 0.0 W/m2 CLR
21:48 8.9 °F 4.1 °F 1016.1 in NW 46.3 mph 46.3 mph 72 % 0.0 in 0.0 W/m2 CLR
21:53 8.9 °F 4.1 °F 1016.1 in NW 50.0 mph 50.0 mph 72 % 0.0 in 0.0 W/m2 CLR
21:58 8.9 °F 4.1 °F 1016.1 in NW 38.9 mph 38.9 mph 72 % 0.0 in 0.0 W/m2 CLR
22:03 8.9 °F 4.1 °F 1016.1 in NNW 48.3 mph 48.3 mph 72 % 0.0 in 0.0 W/m2 CLR
22:08 8.9 °F 4.1 °F 1016.1 in NNW 48.1 mph 48.1 mph 72 % 0.0 in 0.0 W/m2 CLR
22:13 8.9 °F 4.1 °F 1015.8 in NNW 40.7 mph 40.7 mph 72 % 0.0 in 0.0 W/m2 CLR
22:18 8.3 °F 3.8 °F 1015.8 in NNW 48.3 mph 48.3 mph 73 % 0.0 in 0.0 W/m2 CLR
22:23 8.3 °F 3.8 °F 1015.8 in NW 33.3 mph 33.3 mph 73 % 0.0 in 0.0 W/m2 CLR
22:28 8.3 °F 3.8 °F 1015.8 in NW 40.7 mph 40.7 mph 73 % 0.0 in 0.0 W/m2 CLR
22:33 8.3 °F 3.6 °F 1015.8 in NNW 42.6 mph 42.6 mph 72 % 0.0 in 0.0 W/m2 CLR
22:38 8.3 °F 3.8 °F 1015.5 in NNW 50.0 mph 50.0 mph 73 % 0.0 in 0.0 W/m2 CLR
22:43 8.3 °F 3.8 °F 1015.5 in NNW 48.3 mph 48.3 mph 73 % 0.0 in 0.0 W/m2 CLR
22:48 8.3 °F 3.8 °F 1015.5 in NW 40.7 mph 40.7 mph 73 % 0.0 in 0.0 W/m2 CLR
22:53 8.3 °F 3.8 °F 1015.5 in WNW 40.7 mph 40.7 mph 73 % 0.0 in 0.0 W/m2 CLR
22:58 8.3 °F 3.6 °F 1015.5 in NW 44.4 mph 44.4 mph 72 % 0.0 in 0.0 W/m2 CLR
23:03 8.3 °F 3.6 °F 1015.5 in NW 42.6 mph 42.6 mph 72 % 0.0 in 0.0 W/m2 CLR
23:08 8.3 °F 3.6 °F 1015.1 in NW 40.7 mph 40.7 mph 72 % 0.0 in 0.0 W/m2 CLR
23:13 8.3 °F 3.6 °F 1015.1 in NW 49.9 mph 49.9 mph 72 % 0.0 in 0.0 W/m2 CLR
23:18 8.3 °F 3.6 °F 1015.1 in NW 32.2 mph 32.2 mph 72 % 0.0 in 0.0 W/m2 CLR
23:23 8.3 °F 3.6 °F 1015.1 in NW 40.2 mph 40.2 mph 72 % 0.0 in 0.0 W/m2 CLR
23:28 8.3 °F 3.6 °F 1015.1 in NW 33.3 mph 33.3 mph 72 % 0.0 in 0.0 W/m2 CLR
23:33 8.3 °F 3.6 °F 1015.1 in NW 44.4 mph 44.4 mph 72 % 0.0 in 0.0 W/m2 CLR
23:38 7.8 °F 3.1 °F 1014.8 in NW 43.4 mph 43.4 mph 72 % 0.0 in 0.0 W/m2 CLR
23:43 7.8 °F 3.2 °F 1014.8 in NW 51.8 mph 51.8 mph 73 % 0.0 in 0.0 W/m2 CLR
23:48 7.8 °F 3.2 °F 1014.8 in NW 42.6 mph 42.6 mph 73 % 0.0 in 0.0 W/m2 CLR
23:53 7.8 °F 3.1 °F 1014.8 in NW 31.5 mph 31.5 mph 72 % 0.0 in 0.0 W/m2 CLR
23:58 7.8 °F 3.2 °F 1015.1 in NW 27.8 mph 27.8 mph 73 % 0.0 in 0.0 W/m2 CLR
Lo Temps de Massalio
Compliments of Weather Underground - 1.25 mb